Time;durP1;ratioP1;P1;durP2;ratioP2;P2;SDS_P1;SDS_P2;PMS_P1;PMS_P2;Temp;Humidity;BMP_temperature;BMP_pressure;BME280_temperature;BME280_humidity;BME280_pressure;Samples;Min_cycle;Max_cycle;Signal;HPM_P1;HPM_P2
2022/05/11 00:00:32;;;;;;;2.83;1.00;;;;;;;;;;5071650;28;20051;-78
2022/05/11 00:02:57;;;;;;;1.50;0.70;;;;;;;;;;5054940;28;20108;-79
2022/05/11 00:05:23;;;;;;;1.27;0.90;;;;;;;;;;5072804;28;20038;-78
2022/05/11 00:07:48;;;;;;;1.40;0.93;;;;;;;;;;5071317;28;20028;-77
2022/05/11 00:10:14;;;;;;;5.05;1.00;;;;;;;;;;5071226;28;20035;-78
2022/05/11 00:12:45;;;;;;;1.58;1.10;;;;;;;;;;5070468;28;20036;-78
2022/05/11 00:15:13;;;;;;;1.70;1.00;;;;;;;;;;5072670;28;20056;-78
2022/05/11 00:17:38;;;;;;;1.23;0.88;;;;;;;;;;5071084;28;20055;-78
2022/05/11 00:20:06;;;;;;;1.75;0.95;;;;;;;;;;5054525;28;20056;-78
2022/05/11 00:22:33;;;;;;;1.52;0.90;;;;;;;;;;5071006;28;20020;-78
2022/05/11 00:24:58;;;;;;;0.75;0.70;;;;;;;;;;5070968;28;20171;-78
2022/05/11 00:27:23;;;;;;;1.15;0.80;;;;;;;;;;5070841;28;20116;-78
2022/05/11 00:29:49;;;;;;;2.28;0.82;;;;;;;;;;5070982;28;20335;-78
2022/05/11 00:32:14;;;;;;;1.88;0.85;;;;;;;;;;5070767;28;20036;-79
2022/05/11 00:34:39;;;;;;;2.25;0.90;;;;;;;;;;5054445;28;20594;-79
2022/05/11 00:37:05;;;;;;;0.77;0.75;;;;;;;;;;5054079;28;20509;-80
2022/05/11 00:39:34;;;;;;;1.40;0.90;;;;;;;;;;5054266;28;20024;-79
2022/05/11 00:42:01;;;;;;;0.90;0.80;;;;;;;;;;5071945;28;20111;-79
2022/05/11 00:44:26;;;;;;;0.90;0.90;;;;;;;;;;5070197;28;20017;-80
2022/05/11 00:46:57;;;;;;;1.30;0.90;;;;;;;;;;5053908;28;20033;-79
2022/05/11 00:49:36;;;;;;;1.40;1.10;;;;;;;;;;5070344;28;20154;-79
2022/05/11 00:52:09;;;;;;;0.88;0.88;;;;;;;;;;5053955;28;20055;-79
2022/05/11 00:54:39;;;;;;;2.05;1.25;;;;;;;;;;5070481;28;20024;-79
2022/05/11 00:57:17;;;;;;;0.80;0.80;;;;;;;;;;5053979;28;20127;-79
2022/05/11 00:59:44;;;;;;;1.30;0.93;;;;;;;;;;5054083;28;20068;-79
2022/05/11 01:02:10;;;;;;;1.65;1.10;;;;;;;;;;5037171;28;20024;-79
2022/05/11 01:04:39;;;;;;;1.88;1.00;;;;;;;;;;5071869;28;20036;-79
2022/05/11 01:07:08;;;;;;;2.97;1.15;;;;;;;;;;5053535;28;20119;-78
2022/05/11 01:09:33;;;;;;;1.40;0.80;;;;;;;;;;5053515;28;20020;-79
2022/05/11 01:12:01;;;;;;;1.67;1.13;;;;;;;;;;5070453;28;20103;-79
2022/05/11 01:14:31;;;;;;;0.90;0.85;;;;;;;;;;5053634;28;20021;-78
2022/05/11 01:16:58;;;;;;;1.05;0.90;;;;;;;;;;5053863;28;20044;-79
2022/05/11 01:19:30;;;;;;;0.98;0.90;;;;;;;;;;5053497;28;20056;-79
2022/05/11 01:22:05;;;;;;;1.42;0.88;;;;;;;;;;5070231;28;20024;-79
2022/05/11 01:24:33;;;;;;;0.82;0.73;;;;;;;;;;5053259;28;20150;-78
2022/05/11 01:26:58;;;;;;;1.95;0.98;;;;;;;;;;5053771;28;20147;-78
2022/05/11 01:29:23;;;;;;;0.80;0.80;;;;;;;;;;5070044;28;20063;-78
2022/05/11 01:31:49;;;;;;;1.23;0.70;;;;;;;;;;5070255;28;20115;-78
2022/05/11 01:34:21;;;;;;;2.20;0.90;;;;;;;;;;5070204;28;20104;-77
2022/05/11 01:36:49;;;;;;;0.77;0.77;;;;;;;;;;5070122;28;20021;-77
2022/05/11 01:39:14;;;;;;;1.50;1.00;;;;;;;;;;5071502;28;20386;-77
2022/05/11 01:41:42;;;;;;;1.48;0.80;;;;;;;;;;5070344;28;20058;-77
2022/05/11 01:44:12;;;;;;;3.08;1.10;;;;;;;;;;5036795;28;20017;-77
2022/05/11 01:46:39;;;;;;;1.45;1.15;;;;;;;;;;5070259;28;20074;-79
2022/05/11 01:49:05;;;;;;;1.42;0.98;;;;;;;;;;5052806;28;20090;-77
2022/05/11 01:51:30;;;;;;;3.13;0.90;;;;;;;;;;5071514;28;20025;-78
2022/05/11 01:53:56;;;;;;;1.30;0.98;;;;;;;;;;5053141;28;20039;-78
2022/05/11 01:56:23;;;;;;;1.95;1.00;;;;;;;;;;5071119;28;20048;-78
2022/05/11 01:58:49;;;;;;;1.60;0.98;;;;;;;;;;5071218;28;20104;-78
2022/05/11 02:01:16;;;;;;;2.03;0.95;;;;;;;;;;5069751;28;20394;-78
2022/05/11 02:03:42;;;;;;;0.75;0.75;;;;;;;;;;5069930;28;20092;-80
2022/05/11 02:08:52;;;;;;;0.80;0.80;;;;;;;;;;5070859;28;20237;-80
2022/05/11 02:11:18;;;;;;;1.83;1.00;;;;;;;;;;5069218;28;20165;-80
2022/05/11 02:13:45;;;;;;;1.70;0.90;;;;;;;;;;5071005;28;20387;-80
2022/05/11 02:16:10;;;;;;;1.10;1.02;;;;;;;;;;5069892;28;20044;-80
2022/05/11 02:18:36;;;;;;;0.80;0.80;;;;;;;;;;5052836;28;20029;-80
2022/05/11 02:21:01;;;;;;;1.42;1.00;;;;;;;;;;5069389;28;20399;-81
2022/05/11 02:23:26;;;;;;;2.08;1.17;;;;;;;;;;5069706;28;20029;-79
2022/05/11 02:25:52;;;;;;;1.52;1.00;;;;;;;;;;5052796;28;20063;-80
2022/05/11 02:28:21;;;;;;;1.55;1.00;;;;;;;;;;5069639;28;20039;-79
2022/05/11 02:30:47;;;;;;;1.70;1.00;;;;;;;;;;5052759;28;20064;-81
2022/05/11 02:33:13;;;;;;;1.67;1.10;;;;;;;;;;5069825;28;20203;-80
2022/05/11 02:35:39;;;;;;;1.88;1.15;;;;;;;;;;5053562;28;20528;-80
2022/05/11 02:38:11;;;;;;;1.65;1.10;;;;;;;;;;5057076;28;20047;-80
2022/05/11 02:40:37;;;;;;;1.42;1.00;;;;;;;;;;5073499;28;20016;-80
2022/05/11 02:43:04;;;;;;;1.00;0.88;;;;;;;;;;5073319;28;20063;-80
2022/05/11 02:45:31;;;;;;;1.10;0.90;;;;;;;;;;5073682;28;20158;-81
2022/05/11 02:47:56;;;;;;;0.93;0.82;;;;;;;;;;5056890;28;20028;-79
2022/05/11 02:50:28;;;;;;;1.95;1.00;;;;;;;;;;5074135;28;20510;-79
2022/05/11 02:52:53;;;;;;;1.45;0.80;;;;;;;;;;5058013;28;20036;-79
2022/05/11 02:55:19;;;;;;;1.08;0.95;;;;;;;;;;5076024;28;20058;-79
2022/05/11 02:57:44;;;;;;;1.08;0.98;;;;;;;;;;5075925;28;20094;-79
2022/05/11 03:00:12;;;;;;;1.77;1.00;;;;;;;;;;5058603;28;20085;-79
2022/05/11 03:02:38;;;;;;;1.73;1.00;;;;;;;;;;5073992;28;20023;-80
2022/05/11 03:05:04;;;;;;;1.77;1.00;;;;;;;;;;5056297;28;20028;-81
2022/05/11 03:07:30;;;;;;;2.15;1.10;;;;;;;;;;5056082;28;20463;-81
2022/05/11 03:09:55;;;;;;;2.35;1.20;;;;;;;;;;5056339;28;20124;-81
2022/05/11 03:12:24;;;;;;;1.33;0.95;;;;;;;;;;5072983;28;20029;-81
2022/05/11 03:14:53;;;;;;;1.38;0.88;;;;;;;;;;5072892;28;20043;-81
2022/05/11 03:17:19;;;;;;;1.17;0.80;;;;;;;;;;5073453;28;20029;-81
2022/05/11 03:19:44;;;;;;;0.80;0.80;;;;;;;;;;5073787;28;20078;-81
2022/05/11 03:22:09;;;;;;;1.77;1.10;;;;;;;;;;5072564;28;20040;-81
2022/05/11 03:24:35;;;;;;;1.40;0.93;;;;;;;;;;5072604;28;20124;-80
2022/05/11 03:27:00;;;;;;;2.08;1.17;;;;;;;;;;5072432;28;20113;-80
2022/05/11 03:29:26;;;;;;;0.95;0.90;;;;;;;;;;5072110;28;20028;-81
2022/05/11 03:34:38;;;;;;;;;;;;;;;;;;5073193;28;20039;-81
2022/05/11 03:37:08;;;;;;;4.43;0.90;;;;;;;;;;5072371;28;19931;-80
2022/05/11 03:39:34;;;;;;;2.28;1.00;;;;;;;;;;5072526;28;20086;-80
2022/05/11 03:42:00;;;;;;;6.43;1.08;;;;;;;;;;5073895;28;20033;-80
2022/05/11 03:44:25;;;;;;;2.03;1.13;;;;;;;;;;5072632;28;20437;-80
2022/05/11 03:50:14;;;;;;;1.73;1.10;;;;;;;;;;5063939;28;20063;-79
2022/05/11 03:52:39;;;;;;;1.52;1.08;;;;;;;;;;5055307;28;20101;-81
2022/05/11 03:55:08;;;;;;;3.88;1.15;;;;;;;;;;5071766;28;20503;-81
2022/05/11 03:57:35;;;;;;;2.08;1.02;;;;;;;;;;5038559;28;20023;-80
2022/05/11 04:00:01;;;;;;;1.80;1.02;;;;;;;;;;5071060;28;20063;-81
2022/05/11 04:02:26;;;;;;;1.52;1.10;;;;;;;;;;5071769;28;20459;-79
2022/05/11 04:04:51;;;;;;;1.90;1.00;;;;;;;;;;5054845;28;20036;-78
2022/05/11 04:07:17;;;;;;;4.32;1.23;;;;;;;;;;5055484;28;20455;-78
2022/05/11 04:09:42;;;;;;;1.48;1.10;;;;;;;;;;5071791;28;20339;-79
2022/05/11 04:12:08;;;;;;;2.15;1.05;;;;;;;;;;5071957;28;20050;-79
2022/05/11 04:14:34;;;;;;;2.05;1.10;;;;;;;;;;5073026;28;20113;-79
2022/05/11 04:16:59;;;;;;;2.05;1.17;;;;;;;;;;5071493;28;20443;-80
2022/05/11 04:19:29;;;;;;;2.10;1.20;;;;;;;;;;5054790;28;20028;-79
2022/05/11 04:21:55;;;;;;;2.40;1.25;;;;;;;;;;5071556;28;20423;-79
2022/05/11 04:24:20;;;;;;;2.50;1.48;;;;;;;;;;5071160;28;20098;-78
2022/05/11 04:26:45;;;;;;;1.35;1.23;;;;;;;;;;5071276;28;20107;-78
2022/05/11 04:29:11;;;;;;;1.50;1.10;;;;;;;;;;5054675;28;20025;-78
2022/05/11 04:31:37;;;;;;;2.75;1.40;;;;;;;;;;5071357;28;20032;-78
2022/05/11 04:34:02;;;;;;;7.05;1.60;;;;;;;;;;5055468;28;20051;-78
2022/05/11 04:36:30;;;;;;;2.58;1.67;;;;;;;;;;5054923;28;20360;-79
2022/05/11 04:38:56;;;;;;;3.65;1.50;;;;;;;;;;5055080;28;20057;-80
2022/05/11 04:41:21;;;;;;;3.15;1.10;;;;;;;;;;5071501;28;20431;-78
2022/05/11 04:43:46;;;;;;;2.78;1.30;;;;;;;;;;5071304;28;20040;-78
2022/05/11 04:46:12;;;;;;;3.72;1.70;;;;;;;;;;5071497;28;20115;-82
2022/05/11 04:48:38;;;;;;;3.92;1.50;;;;;;;;;;5054370;28;20115;-81
2022/05/11 04:51:04;;;;;;;3.42;1.10;;;;;;;;;;5072217;28;20052;-79
2022/05/11 04:53:30;;;;;;;3.00;1.55;;;;;;;;;;5071326;28;20094;-86
2022/05/11 04:55:55;;;;;;;2.17;1.45;;;;;;;;;;5054689;28;20124;-82
2022/05/11 04:58:21;;;;;;;4.10;1.98;;;;;;;;;;5070971;28;20028;-83
2022/05/11 05:00:46;;;;;;;14.73;4.80;;;;;;;;;;5071561;28;20032;-83
2022/05/11 05:03:13;;;;;;;13.98;4.07;;;;;;;;;;5071139;28;20519;-83
2022/05/11 05:05:38;;;;;;;17.48;3.80;;;;;;;;;;5072580;28;20490;-81
2022/05/11 05:08:05;;;;;;;13.45;3.28;;;;;;;;;;5054353;28;20048;-82
2022/05/11 05:10:30;;;;;;;13.38;3.58;;;;;;;;;;5070940;28;20028;-83
2022/05/11 05:13:01;;;;;;;8.65;3.17;;;;;;;;;;5054186;28;20102;-82
2022/05/11 05:15:26;;;;;;;9.85;3.05;;;;;;;;;;5072235;28;20023;-82
2022/05/11 05:17:52;;;;;;;9.18;2.75;;;;;;;;;;5074276;28;20087;-82
2022/05/11 05:20:18;;;;;;;6.88;2.67;;;;;;;;;;5075567;28;20090;-82
2022/05/11 05:22:43;;;;;;;11.18;2.72;;;;;;;;;;5057464;28;20032;-83
2022/05/11 05:25:09;;;;;;;8.85;2.70;;;;;;;;;;5074726;28;20036;-82
2022/05/11 05:27:34;;;;;;;6.43;2.22;;;;;;;;;;5073858;28;20016;-83
2022/05/11 05:32:44;;;;;;;4.10;1.98;;;;;;;;;;5075167;28;20497;-83
2022/05/11 05:35:15;;;;;;;4.75;2.28;;;;;;;;;;5057695;28;20040;-83
2022/05/11 05:37:40;;;;;;;5.57;1.88;;;;;;;;;;5074022;28;20028;-83
2022/05/11 05:40:07;;;;;;;4.50;1.85;;;;;;;;;;5075066;28;20020;-84
2022/05/11 05:42:32;;;;;;;6.65;1.73;;;;;;;;;;5074869;28;20541;-84
2022/05/11 05:44:58;;;;;;;3.72;2.00;;;;;;;;;;5073669;28;20036;-83
2022/05/11 05:47:23;;;;;;;4.80;1.70;;;;;;;;;;5056784;28;20094;-84
2022/05/11 05:49:49;;;;;;;2.78;1.65;;;;;;;;;;5074538;28;20055;-83
2022/05/11 05:52:20;;;;;;;3.72;1.77;;;;;;;;;;5073079;28;20114;-83
2022/05/11 05:54:46;;;;;;;2.63;1.25;;;;;;;;;;5056679;28;20017;-82
2022/05/11 05:57:13;;;;;;;3.83;1.65;;;;;;;;;;5073279;28;20086;-82
2022/05/11 05:59:38;;;;;;;2.45;1.35;;;;;;;;;;5071825;28;20130;-84
2022/05/11 06:02:08;;;;;;;4.85;1.80;;;;;;;;;;5070814;28;20028;-84
2022/05/11 06:04:33;;;;;;;5.80;1.67;;;;;;;;;;5072178;28;20033;-84
2022/05/11 06:06:59;;;;;;;3.42;1.25;;;;;;;;;;5070604;28;20119;-84
2022/05/11 06:09:24;;;;;;;2.30;1.40;;;;;;;;;;5070452;28;20119;-84
2022/05/11 06:11:49;;;;;;;3.15;1.40;;;;;;;;;;5073260;28;20028;-84
2022/05/11 06:14:15;;;;;;;3.17;1.45;;;;;;;;;;5074526;28;20471;-83
2022/05/11 06:16:40;;;;;;;3.85;1.50;;;;;;;;;;5074474;28;20021;-83
2022/05/11 06:19:06;;;;;;;2.08;1.10;;;;;;;;;;5075709;28;20093;-84
2022/05/11 06:21:31;;;;;;;1.85;1.00;;;;;;;;;;5074263;28;20060;-84
2022/05/11 06:23:57;;;;;;;2.83;1.02;;;;;;;;;;5075748;28;20038;-84
2022/05/11 06:26:22;;;;;;;3.53;1.17;;;;;;;;;;5073962;28;20540;-85
2022/05/11 06:28:48;;;;;;;2.83;1.15;;;;;;;;;;5057411;28;20028;-84
2022/05/11 06:31:14;;;;;;;4.25;1.15;;;;;;;;;;5075199;28;20128;-85
2022/05/11 06:33:40;;;;;;;1.55;0.90;;;;;;;;;;5057138;28;20123;-83
2022/05/11 06:36:06;;;;;;;2.17;1.02;;;;;;;;;;5073825;28;20028;-83
2022/05/11 06:38:32;;;;;;;3.15;0.98;;;;;;;;;;5057047;28;20020;-84
2022/05/11 06:41:05;;;;;;;5.30;1.55;;;;;;;;;;5073716;28;20031;-83
2022/05/11 06:43:31;;;;;;;3.28;1.08;;;;;;;;;;5074979;28;20535;-83
2022/05/11 06:45:56;;;;;;;1.85;1.02;;;;;;;;;;5056838;28;20104;-83
2022/05/11 06:48:22;;;;;;;1.60;0.88;;;;;;;;;;5073388;28;20475;-85
2022/05/11 06:50:51;;;;;;;1.52;0.80;;;;;;;;;;5056759;28;20546;-84
2022/05/11 06:53:16;;;;;;;1.67;0.80;;;;;;;;;;5073438;28;20031;-84
2022/05/11 06:59:20;;;;;;;2.20;1.00;;;;;;;;;;5075005;28;20035;-84
2022/05/11 07:01:15;;;;;;;1.45;0.80;;;;;;;;;;5073274;28;20033;-84
2022/05/11 07:03:41;;;;;;;2.80;1.00;;;;;;;;;;5073769;28;20588;-85
2022/05/11 07:06:07;;;;;;;1.52;0.90;;;;;;;;;;5074678;28;20035;-85
2022/05/11 07:08:39;;;;;;;1.02;0.80;;;;;;;;;;5056468;28;20056;-85
2022/05/11 07:13:49;;;;;;;2.25;1.10;;;;;;;;;;5073582;28;20059;-83
2022/05/11 07:16:15;;;;;;;3.15;1.00;;;;;;;;;;5073383;28;20124;-82
2022/05/11 07:18:41;;;;;;;1.95;0.88;;;;;;;;;;5056591;28;20037;-82
2022/05/11 07:21:07;;;;;;;4.40;1.20;;;;;;;;;;5072817;28;20113;-83
2022/05/11 07:23:32;;;;;;;2.45;0.93;;;;;;;;;;5072876;28;20036;-83
2022/05/11 07:25:58;;;;;;;1.48;0.70;;;;;;;;;;5072897;28;20048;-83
2022/05/11 07:28:24;;;;;;;1.88;0.90;;;;;;;;;;5056194;28;20028;-83
2022/05/11 07:30:51;;;;;;;4.15;1.50;;;;;;;;;;5073187;28;20028;-82
2022/05/11 07:33:17;;;;;;;3.42;1.20;;;;;;;;;;5056437;28;20028;-82
2022/05/11 07:35:43;;;;;;;6.10;1.27;;;;;;;;;;5056121;28;20245;-84
2022/05/11 07:38:11;;;;;;;8.73;1.30;;;;;;;;;;5072897;28;20036;-84
2022/05/11 07:40:36;;;;;;;4.32;1.20;;;;;;;;;;5072802;28;20054;-84
2022/05/11 07:43:02;;;;;;;3.72;0.90;;;;;;;;;;5056406;28;20109;-83
2022/05/11 07:45:28;;;;;;;3.47;1.30;;;;;;;;;;5072673;28;20028;-84
2022/05/11 07:47:53;;;;;;;2.90;1.10;;;;;;;;;;5039606;28;20421;-82
2022/05/11 07:50:23;;;;;;;3.78;1.10;;;;;;;;;;5055516;28;20045;-83
2022/05/11 07:52:48;;;;;;;2.22;0.80;;;;;;;;;;5055624;28;20025;-83
2022/05/11 07:55:15;;;;;;;2.70;0.90;;;;;;;;;;5073826;28;20406;-84
2022/05/11 08:00:25;;;;;;;1.75;1.00;;;;;;;;;;5073998;28;20112;-83
2022/05/11 08:02:51;;;;;;;3.38;1.00;;;;;;;;;;5055902;28;20024;-83
2022/05/11 08:05:18;;;;;;;2.78;1.30;;;;;;;;;;5056392;28;20368;-83
2022/05/11 08:07:46;;;;;;;1.52;0.95;;;;;;;;;;5073671;28;20028;-83
2022/05/11 08:10:24;;;;;;;2.20;0.75;;;;;;;;;;5072277;28;20024;-83
2022/05/11 08:12:50;;;;;;;1.35;0.82;;;;;;;;;;5072279;28;20035;-83
2022/05/11 08:15:16;;;;;;;3.30;1.27;;;;;;;;;;5072711;28;20028;-81
2022/05/11 08:17:43;;;;;;;2.22;1.15;;;;;;;;;;5039363;28;20024;-84
2022/05/11 08:20:14;;;;;;;5.60;1.35;;;;;;;;;;5072680;28;20021;-84
2022/05/11 08:22:41;;;;;;;1.40;0.90;;;;;;;;;;5073411;28;20190;-81
2022/05/11 08:25:07;;;;;;;2.67;1.30;;;;;;;;;;5072265;28;20025;-81
2022/05/11 08:27:32;;;;;;;9.25;1.05;;;;;;;;;;5073332;28;20038;-84
2022/05/11 08:35:29;;;;;;;1.92;0.93;;;;;;;;;;5074050;28;20097;-82
2022/05/11 08:37:57;;;;;;;3.20;1.10;;;;;;;;;;5073995;28;20173;-83
2022/05/11 08:40:41;;;;;;;4.78;1.20;;;;;;;;;;5073992;28;20025;-82
2022/05/11 08:43:14;;;;;;;5.78;1.00;;;;;;;;;;5072458;28;20020;-84
2022/05/11 08:45:48;;;;;;;2.30;1.08;;;;;;;;;;5072355;28;20205;-84
2022/05/11 08:48:39;;;;;;;9.43;1.30;;;;;;;;;;5055258;28;20034;-84
2022/05/11 08:51:06;;;;;;;3.30;1.10;;;;;;;;;;5044852;28;20526;-83
2022/05/11 08:53:41;;;;;;;1.95;0.68;;;;;;;;;;5071489;28;20104;-82
2022/05/11 08:56:12;;;;;;;10.48;1.20;;;;;;;;;;5047798;28;20034;-82
2022/05/11 08:58:48;;;;;;;1.35;0.82;;;;;;;;;;5054968;28;20021;-82
2022/05/11 09:01:30;;;;;;;2.10;0.80;;;;;;;;;;5070635;28;20025;-83
2022/05/11 09:03:58;;;;;;;2.72;0.90;;;;;;;;;;5070054;28;20017;-82
2022/05/11 09:06:29;;;;;;;1.50;0.73;;;;;;;;;;5053775;28;20025;-83
2022/05/11 09:08:56;;;;;;;2.28;0.82;;;;;;;;;;5053644;28;20037;-83
2022/05/11 09:11:24;;;;;;;1.23;0.85;;;;;;;;;;5053590;28;20427;-83
2022/05/11 09:13:50;;;;;;;2.15;0.70;;;;;;;;;;5071586;28;20075;-84
2022/05/11 09:16:39;;;;;;;2.35;0.88;;;;;;;;;;5053631;28;20048;-84
2022/05/11 09:19:29;;;;;;;1.27;0.50;;;;;;;;;;5070327;28;20024;-84
2022/05/11 09:22:10;;;;;;;2.47;0.75;;;;;;;;;;5070495;28;20546;-86
2022/05/11 09:24:50;;;;;;;1.35;0.80;;;;;;;;;;5070217;28;20460;-85
2022/05/11 09:27:30;;;;;;;1.05;0.52;;;;;;;;;;5071833;28;20123;-83
2022/05/11 09:30:04;;;;;;;2.65;0.82;;;;;;;;;;5053427;28;20048;-84
2022/05/11 09:32:33;;;;;;;;;;;;;;;;;;5036538;28;20040;-82
2022/05/11 09:35:18;;;;;;;2.05;0.80;;;;;;;;;;5071588;28;20318;-84
2022/05/11 09:37:45;;;;;;;2.40;0.77;;;;;;;;;;5071087;28;20118;-83
2022/05/11 09:40:20;;;;;;;0.63;0.50;;;;;;;;;;5070006;28;20527;-84
2022/05/11 09:42:50;;;;;;;4.00;0.93;;;;;;;;;;5053992;28;20479;-85
2022/05/11 09:45:35;;;;;;;3.67;0.82;;;;;;;;;;5071646;28;20453;-84
2022/05/11 09:48:08;;;;;;;0.93;0.60;;;;;;;;;;5053315;28;20028;-85
2022/05/11 09:50:33;;;;;;;2.13;0.88;;;;;;;;;;5069668;28;20056;-84
2022/05/11 09:53:15;;;;;;;0.85;0.50;;;;;;;;;;5069867;28;20028;-84
2022/05/11 09:55:40;;;;;;;1.85;0.68;;;;;;;;;;5071571;28;20039;-84
2022/05/11 09:58:08;;;;;;;1.08;0.70;;;;;;;;;;5053833;28;20032;-84
2022/05/11 10:00:36;;;;;;;2.15;0.80;;;;;;;;;;5037191;28;20394;-83
2022/05/11 10:03:07;;;;;;;1.25;0.68;;;;;;;;;;5053490;28;20020;-82
2022/05/11 10:05:39;;;;;;;2.58;0.90;;;;;;;;;;5053548;28;20021;-83
2022/05/11 10:08:41;;;;;;;1.83;0.77;;;;;;;;;;5053659;28;20021;-83
2022/05/11 10:11:25;;;;;;;2.80;0.52;;;;;;;;;;5012806;28;20037;-83
2022/05/11 10:21:50;;;;;;;2.10;0.90;;;;;;;;;;5029580;28;20041;-83
2022/05/11 10:22:54;;;;;;;1.67;0.85;;;;;;;;;;5029930;28;20034;-87
2022/05/11 10:25:20;;;;;;;3.42;1.52;;;;;;;;;;5030176;28;20038;-86
2022/05/11 10:27:53;;;;;;;1.98;1.20;;;;;;;;;;5030157;28;20035;-85
2022/05/11 10:30:28;;;;;;;1.77;0.68;;;;;;;;;;5029972;28;20112;-86
2022/05/11 10:33:20;;;;;;;1.63;0.95;;;;;;;;;;5013185;28;20431;-85
2022/05/11 10:36:25;;;;;;;3.72;0.70;;;;;;;;;;5013438;28;20052;-84
2022/05/11 10:39:07;;;;;;;1.75;0.80;;;;;;;;;;5022726;28;20037;-83
2022/05/11 10:41:44;;;;;;;3.15;1.38;;;;;;;;;;5031419;28;20145;-82
2022/05/11 10:44:50;;;;;;;1.08;0.68;;;;;;;;;;5035102;28;20025;-83
2022/05/11 10:47:33;;;;;;;3.67;1.13;;;;;;;;;;5048132;28;20045;-85
2022/05/11 10:50:21;;;;;;;3.65;1.05;;;;;;;;;;5054635;28;20375;-84
2022/05/11 10:53:05;;;;;;;2.92;1.20;;;;;;;;;;5053696;28;20412;-81
2022/05/11 10:55:43;;;;;;;4.28;0.80;;;;;;;;;;5071731;28;20529;-81
2022/05/11 10:58:35;;;;;;;2.88;1.13;;;;;;;;;;5057485;28;20107;-84
2022/05/11 11:01:15;;;;;;;5.13;1.00;;;;;;;;;;5056574;28;20044;-82
2022/05/11 11:03:53;;;;;;;4.20;1.30;;;;;;;;;;5075434;28;20025;-84
2022/05/11 11:07:11;;;;;;;5.60;1.00;;;;;;;;;;5078023;28;20016;-83
2022/05/11 11:10:06;;;;;;;4.78;0.95;;;;;;;;;;5078820;28;20036;-81
2022/05/11 11:12:39;;;;;;;3.88;1.00;;;;;;;;;;5076965;28;20040;-83
2022/05/11 11:15:10;;;;;;;8.40;1.67;;;;;;;;;;5077053;28;20386;-83
2022/05/11 11:17:36;;;;;;;1.88;0.95;;;;;;;;;;5059556;28;20339;-82
2022/05/11 11:20:05;;;;;;;3.38;1.23;;;;;;;;;;5059894;28;20059;-82
2022/05/11 11:23:13;;;;;;;3.28;0.98;;;;;;;;;;5059868;28;20084;-83
2022/05/11 11:25:43;;;;;;;2.10;0.88;;;;;;;;;;5068399;28;20037;-81
2022/05/11 11:28:12;;;;;;;3.40;0.90;;;;;;;;;;5042571;28;20115;-82
2022/05/11 11:30:39;;;;;;;3.83;1.20;;;;;;;;;;5058135;28;20024;-81
2022/05/11 11:33:10;;;;;;;4.63;1.42;;;;;;;;;;5042532;28;20032;-83
2022/05/11 11:35:40;;;;;;;2.72;0.98;;;;;;;;;;5077599;28;20031;-83
2022/05/11 11:38:06;;;;;;;3.40;1.20;;;;;;;;;;5042576;28;20494;-81
2022/05/11 11:40:33;;;;;;;1.52;0.90;;;;;;;;;;5042940;28;20138;-83
2022/05/11 11:43:38;;;;;;;2.83;0.95;;;;;;;;;;5060095;28;20100;-81
2022/05/11 11:45:48;;;;;;;3.15;0.80;;;;;;;;;;5059504;28;20430;-82
2022/05/11 11:48:24;;;;;;;3.67;1.05;;;;;;;;;;5056378;28;20024;-82
2022/05/11 11:50:58;;;;;;;1.92;0.77;;;;;;;;;;5055982;28;20087;-83
2022/05/11 11:53:26;;;;;;;2.70;0.90;;;;;;;;;;5056487;28;20390;-82
2022/05/11 11:55:52;;;;;;;3.97;1.13;;;;;;;;;;5074025;28;20467;-81
2022/05/11 11:58:30;;;;;;;1.77;1.08;;;;;;;;;;5056230;28;20028;-82
2022/05/11 12:00:59;;;;;;;3.42;0.70;;;;;;;;;;5055911;28;20503;-81
2022/05/11 12:03:26;;;;;;;1.70;1.00;;;;;;;;;;5056116;28;20542;-81
2022/05/11 12:15:01;;;;;;;1.38;0.75;;;;;;;;;;5039262;28;20028;-82
2022/05/11 12:17:02;;;;;;;1.73;0.77;;;;;;;;;;5058665;28;20047;-82
2022/05/11 12:19:33;;;;;;;1.50;0.98;;;;;;;;;;5056309;28;20029;-84
2022/05/11 12:22:12;;;;;;;2.50;0.80;;;;;;;;;;5038730;28;20032;-82
2022/05/11 12:24:42;;;;;;;3.58;1.17;;;;;;;;;;5073392;28;20028;-80
2022/05/11 12:27:15;;;;;;;2.58;1.00;;;;;;;;;;5055589;28;20040;-81
2022/05/11 12:29:59;;;;;;;2.13;1.00;;;;;;;;;;5073810;28;20059;-81
2022/05/11 12:32:50;;;;;;;2.30;1.10;;;;;;;;;;5049272;28;20735;-83
2022/05/11 12:35:19;;;;;;;2.13;1.10;;;;;;;;;;5056101;28;20036;-82
2022/05/11 12:37:57;;;;;;;3.65;1.10;;;;;;;;;;5072751;28;20071;-82
2022/05/11 12:40:23;;;;;;;3.00;1.40;;;;;;;;;;5055821;28;20451;-81
2022/05/11 12:42:52;;;;;;;4.22;1.08;;;;;;;;;;5056878;28;20032;-80
2022/05/11 12:45:25;;;;;;;5.95;0.82;;;;;;;;;;5056885;28;20439;-82
2022/05/11 12:48:01;;;;;;;3.63;1.00;;;;;;;;;;5050305;28;20032;-80
2022/05/11 12:51:11;;;;;;;2.10;0.75;;;;;;;;;;5044644;28;20041;-81
2022/05/11 12:53:48;;;;;;;4.43;0.90;;;;;;;;;;5026212;28;20586;-83
2022/05/11 12:56:28;;;;;;;5.97;1.27;;;;;;;;;;5049444;28;20037;-81
2022/05/11 12:59:18;;;;;;;2.97;0.98;;;;;;;;;;5050630;28;20081;-82
2022/05/11 13:01:49;;;;;;;2.30;0.98;;;;;;;;;;5050455;28;20040;-84
2022/05/11 13:04:29;;;;;;;4.20;1.05;;;;;;;;;;5036267;28;20120;-83
2022/05/11 13:07:00;;;;;;;2.78;0.90;;;;;;;;;;5034475;28;20036;-84
2022/05/11 13:09:35;;;;;;;2.17;0.93;;;;;;;;;;5050266;28;20116;-82
2022/05/11 13:12:01;;;;;;;4.88;1.33;;;;;;;;;;5049584;28;20033;-85
2022/05/11 13:14:36;;;;;;;4.50;1.20;;;;;;;;;;5068139;28;20021;-82
2022/05/11 13:17:04;;;;;;;3.70;0.93;;;;;;;;;;5049442;28;20067;-85
2022/05/11 13:19:33;;;;;;;4.85;1.00;;;;;;;;;;5050043;28;20017;-82
2022/05/11 13:22:15;;;;;;;5.82;1.45;;;;;;;;;;5049447;28;20374;-83
2022/05/11 13:24:48;;;;;;;3.53;1.00;;;;;;;;;;5048734;28;20075;-82
2022/05/11 13:27:39;;;;;;;6.95;1.33;;;;;;;;;;5048920;28;20500;-83
2022/05/11 13:30:12;;;;;;;9.18;1.25;;;;;;;;;;5047164;28;20029;-84
2022/05/11 13:32:52;;;;;;;7.35;1.33;;;;;;;;;;5066001;28;20052;-83
2022/05/11 13:35:19;;;;;;;10.02;1.60;;;;;;;;;;5033390;28;20028;-81
2022/05/11 13:38:09;;;;;;;2.75;0.90;;;;;;;;;;5050615;28;20033;-81
2022/05/11 13:40:41;;;;;;;5.82;0.82;;;;;;;;;;5049271;28;20016;-82
2022/05/11 13:43:32;;;;;;;7.55;1.10;;;;;;;;;;5048374;28;20024;-82
2022/05/11 13:46:03;;;;;;;4.88;1.20;;;;;;;;;;5065408;28;20063;-83
2022/05/11 13:48:31;;;;;;;3.15;1.02;;;;;;;;;;5047278;28;20024;-82
2022/05/11 13:51:19;;;;;;;10.90;1.48;;;;;;;;;;5058877;28;20051;-85
2022/05/11 13:53:47;;;;;;;4.60;1.00;;;;;;;;;;5063792;28;20408;-83
2022/05/11 13:56:28;;;;;;;5.38;1.10;;;;;;;;;;5052053;28;20020;-81
2022/05/11 13:58:57;;;;;;;4.38;1.10;;;;;;;;;;5054589;28;20078;-80
2022/05/11 14:01:26;;;;;;;2.97;0.90;;;;;;;;;;5055341;28;20032;-80
2022/05/11 14:03:58;;;;;;;5.13;1.20;;;;;;;;;;5054717;28;20056;-81
2022/05/11 14:06:29;;;;;;;9.07;1.23;;;;;;;;;;5053693;28;20035;-81
2022/05/11 14:08:55;;;;;;;5.95;1.20;;;;;;;;;;5054381;28;20347;-84
2022/05/11 14:11:22;;;;;;;4.15;1.63;;;;;;;;;;5070992;28;20036;-84
2022/05/11 14:13:48;;;;;;;2.45;1.30;;;;;;;;;;5056673;28;20028;-85
2022/05/11 14:16:19;;;;;;;3.85;1.27;;;;;;;;;;5055245;28;20103;-86
2022/05/11 14:18:47;;;;;;;4.75;1.50;;;;;;;;;;5072271;28;20055;-86
2022/05/11 14:21:13;;;;;;;7.80;1.80;;;;;;;;;;5057768;28;20074;-86
2022/05/11 14:23:39;;;;;;;3.70;1.60;;;;;;;;;;5076332;28;20028;-87
2022/05/11 14:26:05;;;;;;;3.85;1.35;;;;;;;;;;5060295;28;20092;-84
2022/05/11 14:28:30;;;;;;;4.68;1.65;;;;;;;;;;5075843;28;20052;-86
2022/05/11 14:30:56;;;;;;;3.30;1.20;;;;;;;;;;5075519;28;20035;-84
2022/05/11 14:33:22;;;;;;;3.38;1.20;;;;;;;;;;5077110;28;20051;-86
2022/05/11 14:35:48;;;;;;;4.57;1.30;;;;;;;;;;5062849;28;20111;-87
2022/05/11 14:38:14;;;;;;;7.38;1.83;;;;;;;;;;5059528;28;20048;-81
2022/05/11 14:40:40;;;;;;;6.05;1.80;;;;;;;;;;5074629;28;20049;-81
2022/05/11 14:43:05;;;;;;;3.13;1.35;;;;;;;;;;5058177;28;20497;-86
2022/05/11 14:45:35;;;;;;;3.42;1.42;;;;;;;;;;5060828;28;20033;-84
2022/05/11 14:48:04;;;;;;;2.88;1.10;;;;;;;;;;5076707;28;20075;-83
2022/05/11 14:50:30;;;;;;;4.28;1.67;;;;;;;;;;5057268;28;20037;-83
2022/05/11 14:52:59;;;;;;;3.53;1.20;;;;;;;;;;5055542;28;20428;-83
2022/05/11 14:55:26;;;;;;;4.97;1.50;;;;;;;;;;5054743;28;20433;-83
2022/05/11 15:03:21;;;;;;;;;;;;;;;;;;5056998;28;20040;-83
2022/05/11 15:05:46;;;;;;;4.75;1.48;;;;;;;;;;5070876;28;20007;-84
2022/05/11 15:08:12;;;;;;;2.97;0.90;;;;;;;;;;5071082;28;20443;-83
2022/05/11 15:10:37;;;;;;;3.28;1.30;;;;;;;;;;5070596;28;20025;-83
2022/05/11 15:15:47;;;;;;;;;;;;;;;;;;5055417;28;20063;-83
2022/05/11 15:18:16;;;;;;;4.95;1.33;;;;;;;;;;5053953;28;19913;-82
2022/05/11 15:20:42;;;;;;;3.70;1.27;;;;;;;;;;5053375;28;20074;-84
2022/05/11 15:23:08;;;;;;;4.28;1.25;;;;;;;;;;5053418;28;20031;-84
2022/05/11 15:25:33;;;;;;;1.70;1.00;;;;;;;;;;5070307;28;20104;-84
2022/05/11 15:28:00;;;;;;;2.42;1.15;;;;;;;;;;5053432;28;20037;-83
2022/05/11 15:30:25;;;;;;;5.28;1.60;;;;;;;;;;5053361;28;20036;-82
2022/05/11 15:32:52;;;;;;;3.15;1.55;;;;;;;;;;5053196;28;20029;-82
2022/05/11 15:35:19;;;;;;;2.55;1.20;;;;;;;;;;5054683;28;20025;-87
2022/05/11 15:37:46;;;;;;;3.10;1.17;;;;;;;;;;5054414;28;20044;-82
2022/05/11 15:40:12;;;;;;;2.47;1.30;;;;;;;;;;5052827;28;20028;-78
2022/05/11 15:42:40;;;;;;;3.20;1.23;;;;;;;;;;5035841;28;20116;-79
2022/05/11 15:45:06;;;;;;;3.55;1.20;;;;;;;;;;5069331;28;20025;-80
2022/05/11 15:47:33;;;;;;;2.10;1.17;;;;;;;;;;5054261;28;20043;-82